Partiellement nuageux
Ciel couvert
Partiellement nuageux
Ciel couvert
Ciel couvert
Ciel couvert
Ciel couvert
Ciel couvert
Ciel couvert
(°C)
18°
18°
18°
18°
18°
18°
18°
18°
18°
18°
18°
18°
18°
18°
19°
19°
19°
19°
(°C)
19°
19°
19°
19°
19°
19°
19°
19°
19°
SO
SO
SO
SO
SO
OSO
OSO
OSO
OSO
(km/h)
11-23
11-22
11-22
11-22
11-23
11-23
11-25
11-23
11-24
(mm)
0
0
0
0
0
0
0
0
0
(%)
0
4
4
4
4
4
10
4
4

Élévation du soleil

/ -22.7°
sun-icon
UV 6
06:32
21:52
Gibbeuse décroissante (208°)
23:24
08:43

METAR pour Nantes (LFRS)

Heure Conditions Température/
Point de rosée
Vent Visibilité Météo Nuages Pression Changement Brut
IFR 18°C / 18°C 220º 6kt 6000m - Overcast 600ft 1022 Temporary: Visibility 2000. Drizzle . Overcast 200ft. LFRS 222330Z AUTO 22006KT 6000 OVC006 18/18 Q1022 TEMPO 2000 DZ OVC002
IFR 18°C / 17°C 220º 6kt 9700m - Overcast 700ft 1022 Temporary: Visibility 4000. Light Rain Drizzle . LFRS 222300Z AUTO 22006KT 9999 OVC007 18/17 Q1022 TEMPO 4000 -RADZ
IFR 18°C / 18°C 220º 5kt 9700m - Overcast 700ft 1022 Temporary: Visibility 4000. Light Rain Drizzle . LFRS 222230Z AUTO 22005KT 9999 OVC007 18/18 Q1022 TEMPO 4000 -RADZ
IFR 18°C / 17°C 220º variable 180º to 260º 5kt 9700m - Overcast 600ft 1022 Temporary: Visibility 4000. Light Rain Drizzle . LFRS 222200Z AUTO 22005KT 180V260 9999 OVC006 18/17 Q1022 TEMPO 4000 -RADZ
IFR 18°C / 18°C 210º 6kt 9700m - Overcast 600ft 1022 Temporary: Visibility 4000. Light Rain Drizzle . LFRS 222130Z AUTO 21006KT 9999 OVC006 18/18 Q1022 TEMPO 4000 -RADZ
IFR 18°C / 18°C 210º 6kt 9700m - Broken Clouds 700ft
Overcast 1100ft
1022 Temporary: Visibility 4000. Light Rain Drizzle . LFRS 222100Z AUTO 21006KT 9999 BKN007 OVC011 18/18 Q1022 TEMPO 4000 -RADZ
IFR 19°C / 18°C 240º 6kt 9700m - Broken Clouds 600ft
Overcast 1000ft
1022 Temporary: Visibility 4000. Light Rain Drizzle . LFRS 222030Z AUTO 24006KT 9999 BKN006 OVC010 19/18 Q1022 TEMPO 4000 -RADZ
IFR 19°C / 17°C 240º 7kt 9700m - Overcast 800ft 1022 Temporary: Visibility 4000. Light Rain Drizzle . LFRS 222000Z AUTO 24007KT 9999 OVC008 19/17 Q1022 TEMPO 4000 -RADZ
MVFR 19°C / 17°C 250º variable 220º to 280º 9kt 9700m - Overcast 1000ft 1022 Temporary: Visibility 4000. Light Rain Drizzle . LFRS 221930Z AUTO 25009KT 220V280 9999 4600 OVC010 19/17 Q1022 TEMPO 4000 -RADZ
MVFR 19°C / 17°C 230º 6kt 9700m - Overcast 1200ft 1022 Temporary: Visibility 4000. Light Rain Drizzle . Broken Clouds 600ft. LFRS 221900Z AUTO 23006KT 9999 OVC012 19/17 Q1022 TEMPO 4000 -RADZ BKN006
MVFR 19°C / 17°C 250º variable 220º to 280º 8kt 9700m - Overcast 1200ft 1022 Temporary: Visibility 4000. Light Rain Drizzle . Broken Clouds 600ft. LFRS 221830Z AUTO 25008KT 220V280 9999 OVC012 19/17 Q1022 TEMPO 4000 -RADZ BKN006
MVFR 19°C / 17°C 250º 8kt 9700m - Broken Clouds 1100ft
Overcast 1700ft
1022 Temporary: Visibility 4000. Light Rain Drizzle . Broken Clouds 600ft. LFRS 221800Z AUTO 25008KT 9999 BKN011 OVC017 19/17 Q1022 TEMPO 4000 -RADZ BKN006
IFR 19°C / 17°C 230º 7kt 9700m - Broken Clouds 900ft
Overcast 1500ft
1022 Temporary: Visibility 4000. Light Rain Drizzle . LFRS 221730Z AUTO 23007KT 9999 BKN009 OVC015 19/17 Q1022 TEMPO 4000 -RADZ
MVFR 19°C / 17°C 250º variable 220º to 280º 8kt 9700m - Broken Clouds 1100ft
Overcast 1900ft
1022 No Significant change LFRS 221700Z AUTO 25008KT 220V280 9999 BKN011 OVC019 19/17 Q1022 NOSIG
MVFR 20°C / 17°C 250º 10kt 9700m - Overcast 1500ft 1022 Becoming: Broken Clouds 1200ft. LFRS 221630Z AUTO 25010KT 9999 OVC015 20/17 Q1022 BECMG BKN012
MVFR 20°C / 16°C 240º variable 210º to 280º 10kt 9700m - Overcast 1600ft 1022 Temporary: Broken Clouds 1300ft. LFRS 221600Z AUTO 24010KT 210V280 9999 OVC016 20/16 Q1022 TEMPO BKN013
MVFR 20°C / 16°C 240º variable 210º to 270º 10kt 9700m - Broken Clouds 1700ft
Broken Clouds 2300ft
Overcast 3600ft
1022 Temporary: Broken Clouds 1300ft. LFRS 221530Z AUTO 24010KT 210V270 9999 BKN017 BKN023 OVC036 20/16 Q1022 TEMPO BKN013
MVFR 20°C / 17°C 230º variable 200º to 260º 10kt 9700m - Overcast 1600ft 1022 Temporary: Broken Clouds 1300ft. LFRS 221500Z AUTO 23010KT 200V260 9999 OVC016 20/17 Q1022 TEMPO BKN013
MVFR 20°C / 16°C 240º variable 210º to 270º 10kt 9700m - Broken Clouds 1700ft
Overcast 2300ft
1022 Temporary: Broken Clouds 1300ft. LFRS 221430Z AUTO 24010KT 210V270 9999 BKN017 OVC023 20/16 Q1022 TEMPO BKN013
MVFR 20°C / 17°C 250º 10kt 9700m - Broken Clouds 1900ft
Overcast 2600ft
1022 Temporary: Broken Clouds 1300ft. LFRS 221400Z AUTO 25010KT 9999 BKN019 OVC026 20/17 Q1022 TEMPO BKN013
MVFR 21°C / 16°C 240º variable 200º to 260º 12kt 9700m - Broken Clouds 2800ft
Broken Clouds 3300ft
Overcast 4100ft
1022 Temporary: Broken Clouds 1300ft. LFRS 221330Z AUTO 24012KT 200V260 9999 BKN028 BKN033 OVC041 21/16 Q1022 TEMPO BKN013
MVFR 21°C / 16°C 230º variable 200º to 270º 9kt 9700m - Broken Clouds 2300ft
Overcast 2800ft
1022 Temporary: Broken Clouds 1300ft. LFRS 221300Z AUTO 23009KT 200V270 9999 BKN023 OVC028 21/16 Q1022 TEMPO BKN013
MVFR 20°C / 16°C 230º variable 190º to 250º 10kt 9700m - Broken Clouds 1900ft
Overcast 2400ft
1022 Temporary: Broken Clouds 1300ft. LFRS 221230Z AUTO 23010KT 190V250 9999 BKN019 OVC024 20/16 Q1022 TEMPO BKN013
MVFR 19°C / 16°C 250º variable 220º to 290º 9kt 9700m - Overcast 1800ft 1022 Temporary: Broken Clouds 1300ft. LFRS 221200Z AUTO 25009KT 220V290 9999 OVC018 19/16 Q1022 TEMPO BKN013

IFR

18°C / 18°C

[Plus]
Vent 220º 6kt
Visibilité 6000m
Météo -
Nuages Overcast 600ft
Pression 1022
Changement Temporary: Visibility 2000. Drizzle . Overcast 200ft.
Brut LFRS 222330Z AUTO 22006KT 6000 OVC006 18/18 Q1022 TEMPO 2000 DZ OVC002

IFR

18°C / 17°C

[Plus]
Vent 220º 6kt
Visibilité 9700m
Météo -
Nuages Overcast 700ft
Pression 1022
Changement Temporary: Visibility 4000. Light Rain Drizzle .
Brut LFRS 222300Z AUTO 22006KT 9999 OVC007 18/17 Q1022 TEMPO 4000 -RADZ

IFR

18°C / 18°C

[Plus]
Vent 220º 5kt
Visibilité 9700m
Météo -
Nuages Overcast 700ft
Pression 1022
Changement Temporary: Visibility 4000. Light Rain Drizzle .
Brut LFRS 222230Z AUTO 22005KT 9999 OVC007 18/18 Q1022 TEMPO 4000 -RADZ

IFR

18°C / 17°C

[Plus]
Vent 220º variable 180º to 260º 5kt
Visibilité 9700m
Météo -
Nuages Overcast 600ft
Pression 1022
Changement Temporary: Visibility 4000. Light Rain Drizzle .
Brut LFRS 222200Z AUTO 22005KT 180V260 9999 OVC006 18/17 Q1022 TEMPO 4000 -RADZ

IFR

18°C / 18°C

[Plus]
Vent 210º 6kt
Visibilité 9700m
Météo -
Nuages Overcast 600ft
Pression 1022
Changement Temporary: Visibility 4000. Light Rain Drizzle .
Brut LFRS 222130Z AUTO 21006KT 9999 OVC006 18/18 Q1022 TEMPO 4000 -RADZ

IFR

18°C / 18°C

[Plus]
Vent 210º 6kt
Visibilité 9700m
Météo -
Nuages Broken Clouds 700ft
Overcast 1100ft
Pression 1022
Changement Temporary: Visibility 4000. Light Rain Drizzle .
Brut LFRS 222100Z AUTO 21006KT 9999 BKN007 OVC011 18/18 Q1022 TEMPO 4000 -RADZ

IFR

19°C / 18°C

[Plus]
Vent 240º 6kt
Visibilité 9700m
Météo -
Nuages Broken Clouds 600ft
Overcast 1000ft
Pression 1022
Changement Temporary: Visibility 4000. Light Rain Drizzle .
Brut LFRS 222030Z AUTO 24006KT 9999 BKN006 OVC010 19/18 Q1022 TEMPO 4000 -RADZ

IFR

19°C / 17°C

[Plus]
Vent 240º 7kt
Visibilité 9700m
Météo -
Nuages Overcast 800ft
Pression 1022
Changement Temporary: Visibility 4000. Light Rain Drizzle .
Brut LFRS 222000Z AUTO 24007KT 9999 OVC008 19/17 Q1022 TEMPO 4000 -RADZ

MVFR

19°C / 17°C

[Plus]
Vent 250º variable 220º to 280º 9kt
Visibilité 9700m
Météo -
Nuages Overcast 1000ft
Pression 1022
Changement Temporary: Visibility 4000. Light Rain Drizzle .
Brut LFRS 221930Z AUTO 25009KT 220V280 9999 4600 OVC010 19/17 Q1022 TEMPO 4000 -RADZ

MVFR

19°C / 17°C

[Plus]
Vent 230º 6kt
Visibilité 9700m
Météo -
Nuages Overcast 1200ft
Pression 1022
Changement Temporary: Visibility 4000. Light Rain Drizzle . Broken Clouds 600ft.
Brut LFRS 221900Z AUTO 23006KT 9999 OVC012 19/17 Q1022 TEMPO 4000 -RADZ BKN006

MVFR

19°C / 17°C

[Plus]
Vent 250º variable 220º to 280º 8kt
Visibilité 9700m
Météo -
Nuages Overcast 1200ft
Pression 1022
Changement Temporary: Visibility 4000. Light Rain Drizzle . Broken Clouds 600ft.
Brut LFRS 221830Z AUTO 25008KT 220V280 9999 OVC012 19/17 Q1022 TEMPO 4000 -RADZ BKN006

MVFR

19°C / 17°C

[Plus]
Vent 250º 8kt
Visibilité 9700m
Météo -
Nuages Broken Clouds 1100ft
Overcast 1700ft
Pression 1022
Changement Temporary: Visibility 4000. Light Rain Drizzle . Broken Clouds 600ft.
Brut LFRS 221800Z AUTO 25008KT 9999 BKN011 OVC017 19/17 Q1022 TEMPO 4000 -RADZ BKN006

IFR

19°C / 17°C

[Plus]
Vent 230º 7kt
Visibilité 9700m
Météo -
Nuages Broken Clouds 900ft
Overcast 1500ft
Pression 1022
Changement Temporary: Visibility 4000. Light Rain Drizzle .
Brut LFRS 221730Z AUTO 23007KT 9999 BKN009 OVC015 19/17 Q1022 TEMPO 4000 -RADZ

MVFR

19°C / 17°C

[Plus]
Vent 250º variable 220º to 280º 8kt
Visibilité 9700m
Météo -
Nuages Broken Clouds 1100ft
Overcast 1900ft
Pression 1022
Changement No Significant change
Brut LFRS 221700Z AUTO 25008KT 220V280 9999 BKN011 OVC019 19/17 Q1022 NOSIG

MVFR

20°C / 17°C

[Plus]
Vent 250º 10kt
Visibilité 9700m
Météo -
Nuages Overcast 1500ft
Pression 1022
Changement Becoming: Broken Clouds 1200ft.
Brut LFRS 221630Z AUTO 25010KT 9999 OVC015 20/17 Q1022 BECMG BKN012

MVFR

20°C / 16°C

[Plus]
Vent 240º variable 210º to 280º 10kt
Visibilité 9700m
Météo -
Nuages Overcast 1600ft
Pression 1022
Changement Temporary: Broken Clouds 1300ft.
Brut LFRS 221600Z AUTO 24010KT 210V280 9999 OVC016 20/16 Q1022 TEMPO BKN013

MVFR

20°C / 16°C

[Plus]
Vent 240º variable 210º to 270º 10kt
Visibilité 9700m
Météo -
Nuages Broken Clouds 1700ft
Broken Clouds 2300ft
Overcast 3600ft
Pression 1022
Changement Temporary: Broken Clouds 1300ft.
Brut LFRS 221530Z AUTO 24010KT 210V270 9999 BKN017 BKN023 OVC036 20/16 Q1022 TEMPO BKN013

MVFR

20°C / 17°C

[Plus]
Vent 230º variable 200º to 260º 10kt
Visibilité 9700m
Météo -
Nuages Overcast 1600ft
Pression 1022
Changement Temporary: Broken Clouds 1300ft.
Brut LFRS 221500Z AUTO 23010KT 200V260 9999 OVC016 20/17 Q1022 TEMPO BKN013

MVFR

20°C / 16°C

[Plus]
Vent 240º variable 210º to 270º 10kt
Visibilité 9700m
Météo -
Nuages Broken Clouds 1700ft
Overcast 2300ft
Pression 1022
Changement Temporary: Broken Clouds 1300ft.
Brut LFRS 221430Z AUTO 24010KT 210V270 9999 BKN017 OVC023 20/16 Q1022 TEMPO BKN013

MVFR

20°C / 17°C

[Plus]
Vent 250º 10kt
Visibilité 9700m
Météo -
Nuages Broken Clouds 1900ft
Overcast 2600ft
Pression 1022
Changement Temporary: Broken Clouds 1300ft.
Brut LFRS 221400Z AUTO 25010KT 9999 BKN019 OVC026 20/17 Q1022 TEMPO BKN013

MVFR

21°C / 16°C

[Plus]
Vent 240º variable 200º to 260º 12kt
Visibilité 9700m
Météo -
Nuages Broken Clouds 2800ft
Broken Clouds 3300ft
Overcast 4100ft
Pression 1022
Changement Temporary: Broken Clouds 1300ft.
Brut LFRS 221330Z AUTO 24012KT 200V260 9999 BKN028 BKN033 OVC041 21/16 Q1022 TEMPO BKN013

MVFR

21°C / 16°C

[Plus]
Vent 230º variable 200º to 270º 9kt
Visibilité 9700m
Météo -
Nuages Broken Clouds 2300ft
Overcast 2800ft
Pression 1022
Changement Temporary: Broken Clouds 1300ft.
Brut LFRS 221300Z AUTO 23009KT 200V270 9999 BKN023 OVC028 21/16 Q1022 TEMPO BKN013

MVFR

20°C / 16°C

[Plus]
Vent 230º variable 190º to 250º 10kt
Visibilité 9700m
Météo -
Nuages Broken Clouds 1900ft
Overcast 2400ft
Pression 1022
Changement Temporary: Broken Clouds 1300ft.
Brut LFRS 221230Z AUTO 23010KT 190V250 9999 BKN019 OVC024 20/16 Q1022 TEMPO BKN013

MVFR

19°C / 16°C

[Plus]
Vent 250º variable 220º to 290º 9kt
Visibilité 9700m
Météo -
Nuages Overcast 1800ft
Pression 1022
Changement Temporary: Broken Clouds 1300ft.
Brut LFRS 221200Z AUTO 25009KT 220V290 9999 OVC018 19/16 Q1022 TEMPO BKN013

TAF pour Nantes (LFRS)

From till


From till Wind 220º 6kt. Visibility 9700m. Overcast 700ft.
Temporarly from till Visibility 2000m. Drizzle . Overcast 200ft.
Becoming from till
Becoming from till
Becoming from till
With 30% probability, Temporarly from till Visibility 2000m. Mist .

Brut: TAF LFRS 222300Z 2300/2406 22006KT 9999 OVC007 TEMPO 2300/2309 2000 DZ OVC002 BECMG 2309/2312 BKN020 BECMG 2314/2317 28010KT BECMG 2321/2323 VRB03KT PROB30 TEMPO 2403/2406 2000 BR

Radar et prévision de précipitation à court terme pour Nantes

Bruine
Légère
Modéré
Fort
Très fort
Grêle

Le marqueur est placé sur Nantes. Cette animation montre le radar des précipitations pour la plage horaire sélectionnée, ainsi qu'une 2h prévision. Les croix orange indiquent la foudre. Données fournies par nowcast.de (disponibles aux États-Unis, en Europe et en Australie). Une bruine ou une légère chute de neige peut être invisible pour le radar. L'intensité des précipitations est codée par couleur, allant du turquoise au rouge.

Les images satellites et les pluies actuelles pour Nantes, France

Le marqueur est placé sur Nantes. [Plus]

L'image satellite en temps réel combine la lumière visible pendant la journée et le rayonnement infrarouge pendant la nuit. La nuit, l'image n'est pas sombre car le rayonnement infrarouge permet de détecter les différences de température. Malheureusement, les nuages bas et le brouillard sont difficiles à distinguer des températures au sol et peuvent donc être presque invisibles pendant la nuit. Les images des satellites Météosat pour l'Europe sont mises à jour en temps réel toutes les 5 minutes. Les images GOES-16/GOES-17 (Amérique du Nord et du Sud) et Himawari (Asie) sont mises à jour toutes les 10 minutes.

Les précipitations sont estimées à partir de radars et de satellites. Les estimations des précipitations par satellite sont moins précises la nuit que le jour.

© 2024 meteoblue, NOAA Satellites GOES-16 and EUMETSAT. Données de foudre fournies par nowcast.

Retour vers le haut
×
Salut,
Il semble que vous utilisiez un logiciel antipub.

La publicité est essentielle pour maintenir notre site web gratuit avec des détails et précision uniques.

Veuillez mettre www.meteoblue.com sur la liste blanche de votre bloqueur de publicité ou envisager d'acheter l'un de nos produits :

Vous avez déjà un abonnement ?
Dans ce cas, veuillez vous connecter.